Time;durP1;ratioP1;P1;durP2;ratioP2;P2;SDS_P1;SDS_P2;PMS_P1;PMS_P2;Temp;Humidity;BMP_temperature;BMP_pressure;BME280_temperature;BME280_humidity;BME280_pressure;Samples;Min_cycle;Max_cycle;Signal;HPM_P1;HPM_P2
2023/10/05 00:14:06;;;;;;;28.98;9.38;;;;;;;21.25;100.00;100701.63;31466974;28;20156;-74
2023/10/05 00:44:30;;;;;;;17.92;8.77;;;;;;;20.22;100.00;100602.19;31456750;28;20491;-74
2023/10/05 00:59:32;;;;;;;25.97;9.27;;;;;;;20.03;100.00;100563.00;31452264;28;20455;-75
2023/10/05 01:14:46;;;;;;;20.03;8.77;;;;;;;20.10;100.00;100515.78;31450038;28;20429;-75
2023/10/05 01:29:49;;;;;;;24.40;10.43;;;;;;;19.99;100.00;100512.84;31476206;28;20535;-75
2023/10/05 01:44:51;;;;;;;30.83;15.15;;;;;;;19.96;100.00;100518.53;31473529;28;20056;-75
2023/10/05 01:59:54;;;;;;;30.35;14.60;;;;;;;20.03;100.00;100534.69;31467887;28;20055;-75
2023/10/05 02:14:57;;;;;;;32.63;12.60;;;;;;;20.09;100.00;100563.09;31459024;28;20076;-74
2023/10/05 02:30:05;;;;;;;16.37;8.97;;;;;;;20.05;100.00;100549.53;31464344;28;20036;-74
2023/10/05 02:45:09;;;;;;;16.63;8.40;;;;;;;20.10;100.00;100562.63;31454514;28;20177;-72
2023/10/05 03:00:12;;;;;;;40.33;20.87;;;;;;;20.08;100.00;100575.34;31478991;28;20048;-74
2023/10/05 03:15:14;;;;;;;40.97;20.30;;;;;;;19.75;100.00;100603.03;31462047;28;20071;-73
2023/10/05 03:30:17;;;;;;;42.57;22.27;;;;;;;19.85;100.00;100634.78;31451148;28;20546;-74
2023/10/05 03:45:22;;;;;;;30.57;14.47;;;;;;;19.51;100.00;100632.53;31472293;28;20141;-74
2023/10/05 04:00:31;;;;;;;23.70;10.93;;;;;;;19.45;100.00;100646.16;31448291;28;21459;-73
2023/10/05 04:15:38;;;;;;;20.70;9.87;;;;;;;19.43;100.00;100660.38;31448118;28;20048;-73
2023/10/05 04:30:42;;;;;;;19.17;10.00;;;;;;;19.57;100.00;100677.50;31438483;28;20131;-75
2023/10/05 04:45:47;;;;;;;21.80;11.40;;;;;;;20.08;100.00;100724.16;31472763;28;20048;-74
2023/10/05 05:01:04;;;;;;;;;;;;;;;20.51;100.00;100778.00;31482217;28;20638;-76
2023/10/05 05:16:07;;;;;;;23.33;10.20;;;;;;;20.99;100.00;100772.41;31466220;28;19946;-74
2023/10/05 05:31:19;;;;;;;18.67;8.77;;;;;;;22.55;100.00;100819.09;31466757;28;20539;-73
2023/10/05 05:46:21;;;;;;;16.63;8.57;;;;;;;22.11;100.00;100831.09;31468637;28;20040;-77
2023/10/05 06:01:23;;;;;;;22.00;8.48;;;;;;;24.10;100.00;100869.03;31442653;28;20091;-74
2023/10/05 06:16:25;;;;;;;18.65;7.95;;;;;;;25.60;98.01;100909.13;31474554;28;20151;-74
2023/10/05 06:31:28;;;;;;;12.65;6.95;;;;;;;26.78;87.79;100919.69;31493586;28;20053;-76
2023/10/05 06:46:30;;;;;;;10.27;6.17;;;;;;;27.79;78.43;100941.50;31484256;28;20052;-75
2023/10/05 07:01:34;;;;;;;11.97;4.83;;;;;;;28.68;68.14;100959.53;31460216;28;20048;-75
2023/10/05 07:16:37;;;;;;;10.88;4.70;;;;;;;29.47;63.30;100957.34;31457291;28;20091;-75
2023/10/05 07:31:39;;;;;;;12.77;4.93;;;;;;;30.11;59.06;100969.34;31480777;28;20055;-76
2023/10/05 07:46:44;;;;;;;9.77;4.35;;;;;;;28.70;59.17;100954.16;31449644;28;20347;-72
2023/10/05 08:01:49;;;;;;;8.18;5.05;;;;;;;30.22;56.04;100959.25;31438053;28;20053;-75
2023/10/05 08:16:52;;;;;;;11.48;5.60;;;;;;;27.98;60.36;100953.53;31487453;28;20482;-73
2023/10/05 08:31:54;;;;;;;7.72;4.63;;;;;;;30.72;53.76;100961.16;31484691;28;20044;-76
2023/10/05 08:47:00;;;;;;;10.57;4.65;;;;;;;29.94;54.05;100970.88;31431328;28;20048;-75
2023/10/05 09:02:02;;;;;;;7.93;4.72;;;;;;;29.73;53.12;100971.44;31449472;28;20550;-75
2023/10/05 09:17:10;;;;;;;6.75;3.95;;;;;;;31.51;48.09;100947.78;31451401;28;20063;-72
2023/10/05 09:32:36;;;;;;;5.43;3.10;;;;;;;28.72;49.29;100946.78;31455166;28;20048;-75
2023/10/05 09:47:40;;;;;;;6.25;3.13;;;;;;;31.14;46.05;100931.28;31436570;28;20158;-74
2023/10/05 10:02:43;;;;;;;6.68;2.28;;;;;;;31.66;42.54;100930.38;31432530;28;20045;-74
2023/10/05 10:18:03;;;;;;;8.40;2.10;;;;;;;32.10;39.69;100906.06;31455757;28;20055;-74
2023/10/05 10:33:24;;;;;;;6.38;2.58;;;;;;;29.02;41.46;100901.25;31446239;28;20139;-73
2023/10/05 10:48:31;;;;;;;2.83;1.40;;;;;;;31.29;39.10;100897.78;31477316;28;20080;-74
2023/10/05 11:03:36;;;;;;;9.60;2.03;;;;;;;30.83;38.54;100914.03;31458985;28;20091;-71
2023/10/05 11:18:58;;;;;;;3.53;1.90;;;;;;;31.25;38.31;100902.97;31497465;28;20053;-73
2023/10/05 11:34:11;;;;;;;3.97;2.30;;;;;;;33.30;35.61;100886.88;31465933;28;20053;-71
2023/10/05 11:49:33;;;;;;;3.70;1.67;;;;;;;32.57;34.38;100879.78;31489119;28;20086;-71
2023/10/05 12:04:39;;;;;;;5.80;1.33;;;;;;;31.44;34.72;100871.94;31474860;28;20064;-75
2023/10/05 12:19:42;;;;;;;3.65;1.60;;;;;;;29.18;36.21;100853.47;31462072;28;20083;-75
2023/10/05 12:34:47;;;;;;;7.30;1.88;;;;;;;28.28;37.48;100841.16;31457600;28;20086;-73
2023/10/05 12:49:50;;;;;;;7.93;1.88;;;;;;;27.68;37.91;100827.97;31472594;28;20342;-72
2023/10/05 13:04:52;;;;;;;4.00;2.17;;;;;;;27.11;38.77;100818.50;31462118;28;20055;-74
2023/10/05 13:20:14;;;;;;;4.63;2.05;;;;;;;26.89;39.17;100818.63;31459542;28;20056;-76
2023/10/05 13:35:19;;;;;;;3.05;1.55;;;;;;;26.54;39.48;100822.06;31430832;28;20079;-75
2023/10/05 13:50:23;;;;;;;5.93;2.60;;;;;;;26.10;40.47;100812.53;31453680;28;20071;-76
2023/10/05 14:05:25;;;;;;;7.82;3.15;;;;;;;25.79;41.25;100805.25;31457370;28;20045;-75
2023/10/05 14:20:27;;;;;;;5.57;3.30;;;;;;;25.70;41.35;100774.19;31438414;28;20424;-75
2023/10/05 14:35:30;;;;;;;3.72;2.05;;;;;;;25.52;41.84;100774.66;31484840;28;20512;-76
2023/10/05 14:50:32;;;;;;;8.40;2.70;;;;;;;25.30;42.29;100787.28;31475197;28;20044;-78
2023/10/05 15:05:37;;;;;;;4.78;2.42;;;;;;;25.03;42.72;100796.38;31476355;28;20056;-75
2023/10/05 15:20:40;;;;;;;6.30;2.28;;;;;;;24.79;42.64;100811.41;31500246;28;20527;-71
2023/10/05 15:35:43;;;;;;;4.97;2.77;;;;;;;24.58;43.06;100818.38;31483423;28;20455;-76
2023/10/05 15:50:47;;;;;;;7.80;3.97;;;;;;;24.36;43.30;100829.38;31477254;28;20489;-74
2023/10/05 16:05:49;;;;;;;7.40;3.55;;;;;;;24.30;43.22;100831.38;31461939;28;20059;-75
2023/10/05 16:20:51;;;;;;;12.65;4.68;;;;;;;24.08;43.31;100831.97;31463286;28;20458;-75
2023/10/05 16:35:54;;;;;;;13.65;5.30;;;;;;;23.68;44.25;100832.91;31453539;28;20048;-76
2023/10/05 16:50:57;;;;;;;13.00;6.32;;;;;;;23.23;45.05;100826.94;31469520;28;20045;-76
2023/10/05 17:05:59;;;;;;;17.40;6.77;;;;;;;23.12;45.32;100833.16;31445062;28;20353;-74
2023/10/05 17:21:01;;;;;;;15.90;5.97;;;;;;;23.10;45.04;100829.34;31458019;28;20420;-75
2023/10/05 17:36:04;;;;;;;13.00;5.75;;;;;;;22.92;45.65;100835.16;31461186;28;20059;-76
2023/10/05 17:51:07;;;;;;;11.80;6.38;;;;;;;22.86;45.79;100814.97;31434147;28;20059;-75
2023/10/05 18:06:10;;;;;;;21.27;8.07;;;;;;;22.84;45.69;100803.63;31446229;28;20109;-75
2023/10/05 18:21:14;;;;;;;10.93;5.43;;;;;;;22.95;45.32;100801.72;31448827;28;20083;-74
2023/10/05 18:36:17;;;;;;;12.32;5.63;;;;;;;22.99;45.14;100798.75;31461456;28;20423;-75
2023/10/05 18:51:21;;;;;;;11.13;5.03;;;;;;;22.54;45.63;100794.69;31435816;28;20446;-75
2023/10/05 19:06:23;;;;;;;15.40;7.30;;;;;;;22.17;45.87;100797.22;31456262;28;20048;-75
2023/10/05 19:21:26;;;;;;;11.10;5.00;;;;;;;22.25;45.78;100778.97;31462969;28;20059;-75
2023/10/05 19:36:28;;;;;;;14.02;5.10;;;;;;;22.19;45.97;100775.41;31483178;28;20048;-75
2023/10/05 19:51:30;;;;;;;16.40;7.10;;;;;;;22.02;46.11;100780.66;31464626;28;20092;-76
2023/10/05 20:06:32;;;;;;;24.65;8.07;;;;;;;21.20;46.88;100768.56;31491949;28;20419;-76
2023/10/05 20:21:35;;;;;;;15.00;6.38;;;;;;;21.10;47.26;100753.28;31464902;28;20114;-77
2023/10/05 20:36:37;;;;;;;13.60;4.97;;;;;;;21.17;47.61;100747.38;31469032;28;20550;-77
2023/10/05 20:51:40;;;;;;;9.10;4.60;;;;;;;21.15;47.40;100730.53;31489271;28;20468;-78
2023/10/05 21:06:43;;;;;;;10.02;4.15;;;;;;;21.13;47.14;100710.16;31466637;28;20420;-76
2023/10/05 21:21:47;;;;;;;20.05;7.38;;;;;;;20.95;47.64;100711.13;31466738;28;20060;-77
2023/10/05 21:36:51;;;;;;;12.55;5.88;;;;;;;20.57;48.58;100687.09;31472373;28;20095;-78
2023/10/05 21:51:53;;;;;;;15.18;6.38;;;;;;;20.26;49.47;100681.97;31448510;28;20139;-77
2023/10/05 22:06:55;;;;;;;13.18;5.70;;;;;;;19.65;51.37;100676.66;31477633;28;20052;-76
2023/10/05 22:21:57;;;;;;;13.97;5.60;;;;;;;19.33;51.71;100686.44;31467516;28;20045;-77
2023/10/05 22:36:59;;;;;;;14.30;5.97;;;;;;;18.96;52.50;100679.47;31462703;28;20670;-77
2023/10/05 22:52:04;;;;;;;8.73;4.40;;;;;;;18.63;52.57;100671.91;31495459;28;20040;-76
2023/10/05 23:07:08;;;;;;;21.40;11.40;;;;;;;18.47;53.74;100669.44;31468592;28;20123;-78
2023/10/05 23:22:11;;;;;;;15.43;7.80;;;;;;;18.25;55.81;100660.56;31461732;28;20078;-77
2023/10/05 23:37:13;;;;;;;16.67;10.20;;;;;;;18.31;56.77;100639.50;31480752;28;20051;-77
2023/10/05 23:52:15;;;;;;;32.00;14.83;;;;;;;18.22;58.14;100642.25;31498672;28;20089;-75
